Corky — WDC3366 — position and weather

sailwx.info

Track history (hours):
 
Tides and Currents Weather Stations Pressure Air Temp Water Temp Dewpoint Dewpoint Depression Visibility Wind Speed Wind Dir Waves Ship Positions

Corky

Owner: Gulf South Marine Transportation, Inc., New Orleans, LA. More information available from US FCC via Universal Licensing System and Coast Guard Vessel Documentation Center.

Last reported at 2016-Jun-25 13:33 UTC. Time now 2016-Jun-25 14:18 UTC.
Position N 29°56' W 089°59'.

Length 18 m; draft 3.3 m.

Type: Tow > 200 m length. MMSI: 367006780.

Date/timePositionNaut miles runAvg speedWind from/ knotsBaromVisibWave heightAir tempDewpointWater temp
2016-Jun-25 13:33N 29°56' W 089°59'0 0.0
2016-Jun-25 12:33N 29°56' W 089°59'0 0.0
2016-Jun-25 11:33N 29°56' W 089°59'0 0.0
2016-Jun-25 10:33N 29°56' W 089°59'0 0.0
2016-Jun-25 09:33N 29°56' W 089°59'0 0.0
2016-Jun-25 08:33N 29°56' W 089°59'0 0.0
2016-Jun-25 07:33N 29°56' W 089°59'0 0.0
2016-Jun-25 06:33N 29°56' W 089°59'2 1.5
2016-Jun-25 05:33N 29°55' W 089°57'2 1.8
2016-Jun-25 04:33N 29°55' W 089°55'0 0.0
2016-Jun-25 03:33N 29°55' W 089°55'0 0.1
2016-Jun-25 02:33N 29°55' W 089°55'5 4.7
2016-Jun-25 01:33N 29°56' W 090°01'0 0.0
2016-Jun-25 00:33N 29°56' W 090°01'0 0.1
2016-Jun-24 23:33N 29°57' W 090°01'3 2.6
2016-Jun-24 22:33N 29°57' W 090°03'4 4.5
2016-Jun-24 21:33N 29°56' W 090°08'3 2.6
2016-Jun-24 20:33N 29°56' W 090°11'0 0.0
2016-Jun-24 19:33N 29°56' W 090°11'2 0.1
2016-Jun-23 23:19N 29°56' W 090°13'2 2.7
2016-Jun-23 22:33N 29°56' W 090°11'1 0.7
2016-Jun-23 21:33N 29°57' W 090°10'2 1.7
2016-Jun-23 20:08N 29°55' W 090°08'2 2.8
2016-Jun-23 19:33N 29°55' W 090°06'4 2.2
2016-Jun-23 17:33N 29°58' W 090°02'0 0.0
2016-Jun-23 16:33N 29°58' W 090°02'1 0.9
2016-Jun-23 15:33N 29°58' W 090°02'1 1.4
2016-Jun-23 14:33N 29°59' W 090°01'1 1.0
2016-Jun-23 13:32N 29°60' W 090°00'0 0.3
2016-Jun-23 12:33N 29°60' W 089°60'0 0.0
2016-Jun-23 11:33N 29°60' W 089°60'0 0.0
2016-Jun-23 10:33N 29°60' W 089°60'0 0.0
2016-Jun-23 09:33N 29°60' W 089°60'0 0.0
2016-Jun-23 08:33N 29°60' W 089°60'0 0.0
2016-Jun-23 07:33N 29°60' W 089°60'0 0.0
2016-Jun-23 05:33N 29°60' W 089°60'0 0.0
2016-Jun-23 04:33N 29°60' W 089°60'0 0.3
2016-Jun-23 03:32N 29°60' W 089°59'4 3.8
2016-Jun-23 02:21N 30°01' W 089°54'1 0.5
2016-Jun-23 00:28N 30°02' W 089°54'0 0.1
2016-Jun-22 23:32N 30°02' W 089°54'0 0.0
2016-Jun-22 22:30N 30°02' W 089°54'0 0.4
2016-Jun-22 21:28N 30°01' W 089°54'0 0.1
2016-Jun-22 20:22N 30°01' W 089°54'  
2016-Jun-17 17:33N 29°60' W 090°01'1 0.2
2016-Jun-17 14:34N 29°60' W 090°01'2 1.9
2016-Jun-17 13:33N 29°58' W 090°02'1 0.5
2016-Jun-17 12:15N 29°57' W 090°02'0 0.0
2016-Jun-17 11:33N 29°57' W 090°02'0 0.0
2016-Jun-17 10:33N 29°57' W 090°02'0 0.0
2016-Jun-17 09:33N 29°57' W 090°02'0 0.0
2016-Jun-17 08:33N 29°57' W 090°02'0 0.0
2016-Jun-17 07:33N 29°57' W 090°02'0 0.0
2016-Jun-17 06:34N 29°57' W 090°02'5 0.4
2016-Jun-16 19:26N 29°55' W 089°57'0 0.5
2016-Jun-16 18:34N 29°55' W 089°57'3 3.4
2016-Jun-16 17:34N 29°57' W 090°01'5 5.5
2016-Jun-16 16:34N 29°54' W 090°07'4 4.0
2016-Jun-16 15:34N 29°56' W 090°11'1 0.5
2016-Jun-16 14:33N 29°56' W 090°12'9 0.9
2016-Jun-16 04:15N 29°56' W 090°22'0 0.0
2016-Jun-16 03:32N 29°56' W 090°22'  
Track history (hours):
 
Tides and Currents Weather Stations Pressure Air Temp Water Temp Dewpoint Dewpoint Depression Visibility Wind Speed Wind Dir Waves Ship Positions

Corky

Owner: Gulf South Marine Transportation, Inc., New Orleans, LA. More information available from US FCC via Universal Licensing System and Coast Guard Vessel Documentation Center.

Last reported at 2016-Jun-25 13:33 UTC. Time now 2016-Jun-25 14:18 UTC.
Position N 29°56' W 089°59'.

Length 18 m; draft 3.3 m.

Type: Tow > 200 m length. MMSI: 367006780.

Date/timePositionNaut miles runAvg speedWind from/ knotsBaromVisibWave heightAir tempDewpointWater temp
2016-Jun-25 13:33N 29°56' W 089°59'0 0.0
2016-Jun-25 12:33N 29°56' W 089°59'0 0.0
2016-Jun-25 11:33N 29°56' W 089°59'0 0.0
2016-Jun-25 10:33N 29°56' W 089°59'0 0.0
2016-Jun-25 09:33N 29°56' W 089°59'0 0.0
2016-Jun-25 08:33N 29°56' W 089°59'0 0.0
2016-Jun-25 07:33N 29°56' W 089°59'0 0.0
2016-Jun-25 06:33N 29°56' W 089°59'2 1.5
2016-Jun-25 05:33N 29°55' W 089°57'2 1.8
2016-Jun-25 04:33N 29°55' W 089°55'0 0.0
2016-Jun-25 03:33N 29°55' W 089°55'0 0.1
2016-Jun-25 02:33N 29°55' W 089°55'5 4.7
2016-Jun-25 01:33N 29°56' W 090°01'0 0.0
2016-Jun-25 00:33N 29°56' W 090°01'0 0.1
2016-Jun-24 23:33N 29°57' W 090°01'3 2.6
2016-Jun-24 22:33N 29°57' W 090°03'4 4.5
2016-Jun-24 21:33N 29°56' W 090°08'3 2.6
2016-Jun-24 20:33N 29°56' W 090°11'0 0.0
2016-Jun-24 19:33N 29°56' W 090°11'2 0.1
2016-Jun-23 23:19N 29°56' W 090°13'2 2.7
2016-Jun-23 22:33N 29°56' W 090°11'1 0.7
2016-Jun-23 21:33N 29°57' W 090°10'2 1.7
2016-Jun-23 20:08N 29°55' W 090°08'2 2.8
2016-Jun-23 19:33N 29°55' W 090°06'4 2.2
2016-Jun-23 17:33N 29°58' W 090°02'0 0.0
2016-Jun-23 16:33N 29°58' W 090°02'1 0.9
2016-Jun-23 15:33N 29°58' W 090°02'1 1.4
2016-Jun-23 14:33N 29°59' W 090°01'1 1.0
2016-Jun-23 13:32N 29°60' W 090°00'0 0.3
2016-Jun-23 12:33N 29°60' W 089°60'0 0.0
2016-Jun-23 11:33N 29°60' W 089°60'0 0.0
2016-Jun-23 10:33N 29°60' W 089°60'0 0.0
2016-Jun-23 09:33N 29°60' W 089°60'0 0.0
2016-Jun-23 08:33N 29°60' W 089°60'0 0.0
2016-Jun-23 07:33N 29°60' W 089°60'0 0.0
2016-Jun-23 05:33N 29°60' W 089°60'0 0.0
2016-Jun-23 04:33N 29°60' W 089°60'0 0.3
2016-Jun-23 03:32N 29°60' W 089°59'4 3.8
2016-Jun-23 02:21N 30°01' W 089°54'1 0.5
2016-Jun-23 00:28N 30°02' W 089°54'0 0.1
2016-Jun-22 23:32N 30°02' W 089°54'0 0.0
2016-Jun-22 22:30N 30°02' W 089°54'0 0.4
2016-Jun-22 21:28N 30°01' W 089°54'0 0.1
2016-Jun-22 20:22N 30°01' W 089°54'  
2016-Jun-17 17:33N 29°60' W 090°01'1 0.2
2016-Jun-17 14:34N 29°60' W 090°01'2 1.9
2016-Jun-17 13:33N 29°58' W 090°02'1 0.5
2016-Jun-17 12:15N 29°57' W 090°02'0 0.0
2016-Jun-17 11:33N 29°57' W 090°02'0 0.0
2016-Jun-17 10:33N 29°57' W 090°02'0 0.0
2016-Jun-17 09:33N 29°57' W 090°02'0 0.0
2016-Jun-17 08:33N 29°57' W 090°02'0 0.0
2016-Jun-17 07:33N 29°57' W 090°02'0 0.0
2016-Jun-17 06:34N 29°57' W 090°02'5 0.4
2016-Jun-16 19:26N 29°55' W 089°57'0 0.5
2016-Jun-16 18:34N 29°55' W 089°57'3 3.4
2016-Jun-16 17:34N 29°57' W 090°01'5 5.5
2016-Jun-16 16:34N 29°54' W 090°07'4 4.0
2016-Jun-16 15:34N 29°56' W 090°11'1 0.5
2016-Jun-16 14:33N 29°56' W 090°12'9 0.9
2016-Jun-16 04:15N 29°56' W 090°22'0 0.0
2016-Jun-16 03:32N 29°56' W 090°22'  

Dump ship's entire track history